Observations for RIETI, Italy (LIQN)

LIQN 191750Z 00000KT CAVOK 14/12 Q1018  
LIQN 191650Z VRB03KT CAVOK 16/12 Q1018  
LIQN 191550Z 20004KT CAVOK 19/12 Q1017  
LIQN 191450Z 18004KT CAVOK 21/12 Q1017  
LIQN 191350Z VRB03KT CAVOK 21/12 Q1017  
LIQN 191250Z VRB02KT CAVOK 21/12 Q1017  
LIQN 191150Z VRB02KT CAVOK 20/11 Q1018  
LIQN 191050Z 00000KT CAVOK 18/13 Q1019  
LIQN 190950Z 00000KT CAVOK 14/12 Q1019  
LIQN 190930Z VRB02KT 5000 BR FEW005 13/12 Q1019
LIQN 190850Z VRB03KT 1500 BR SCT005 10/10 Q1019 
LIQN 190800Z 00000KT 3000 1000NW BR SCT005 10/10 Q1019